Terminal Aerodrome Forecast
Issued by NWS

Home | Current Version | Previous Version | Text Only | Print | Product List | Glossary On
Versions: 1 2 3 4 5 6 7 8 9 10 11 12 13 14 15 16 17 18 19 20 21
000
FTUS45 KBOU 302355
TAFBJC
TAF
KBJC 302355Z 3100/3124 08007KT P6SM SCT080 BKN120
      TEMPO 3100/3103 VRB14G22KT BKN080
     FM310300 33010KT P6SM SCT080 SCT140
     FM310900 02007KT P6SM SCT006 OVC012 PROB30 3111/3114 3SM -DZ BR
      BKN006
     FM311600 05005KT P6SM BKN012 OVC022
     FM311800 09005KT P6SM SCT014 OVC025
     FM312000 05008KT P6SM SCT025 OVC040 PROB30 3120/3124 -SHRA
      OVC025=

USA.gov is the U.S. government's official web portal to all federal, state and local government web resources and services.